createdAt,value
2023-02-19T00:00:56.754Z,5.00
2023-02-19T00:03:00.120Z,4.33
2023-02-19T00:05:03.512Z,4.90
2023-02-19T00:07:06.901Z,5.53
2023-02-19T00:09:11.283Z,5.10
2023-02-19T00:11:16.992Z,4.60
2023-02-19T00:13:21.809Z,5.53
2023-02-19T00:15:25.410Z,6.13
2023-02-19T00:17:28.896Z,5.50
2023-02-19T00:19:32.589Z,5.57
2023-02-19T00:21:36.096Z,5.70
2023-02-19T00:23:39.508Z,5.43
2023-02-19T00:25:42.828Z,5.57
2023-02-19T00:27:46.114Z,5.40
2023-02-19T00:29:52.397Z,4.97
2023-02-19T00:31:55.923Z,4.20
2023-02-19T00:34:01.760Z,4.50
2023-02-19T00:36:06.631Z,5.20
2023-02-19T00:38:09.980Z,5.37
2023-02-19T00:40:13.291Z,5.50
2023-02-19T00:42:16.670Z,5.10
2023-02-19T00:44:20.477Z,5.83
2023-02-19T00:46:27.881Z,5.50
2023-02-19T00:48:31.298Z,5.03
2023-02-19T00:50:35.611Z,5.13
2023-02-19T00:52:39.352Z,4.70
2023-02-19T00:54:42.669Z,5.97
2023-02-19T00:56:46.373Z,5.63
2023-02-19T00:58:49.907Z,5.73
2023-02-19T01:00:53.262Z,7.00
2023-02-19T01:02:58.026Z,6.00
2023-02-19T01:05:03.032Z,5.23
2023-02-19T01:07:07.062Z,6.57
2023-02-19T01:09:11.607Z,6.10
2023-02-19T01:11:16.741Z,5.77
2023-02-19T01:13:20.505Z,6.43
2023-02-19T01:15:24.257Z,6.13
2023-02-19T01:17:27.601Z,5.87
2023-02-19T01:19:32.612Z,5.80
2023-02-19T01:21:36.137Z,5.30
2023-02-19T01:23:40.572Z,6.70
2023-02-19T01:25:44.081Z,5.50
2023-02-19T01:27:47.422Z,5.40
2023-02-19T01:29:50.976Z,5.87
2023-02-19T01:31:54.575Z,5.50
2023-02-19T01:33:59.862Z,5.77
2023-02-19T01:36:06.740Z,6.00
2023-02-19T01:38:10.152Z,6.03
2023-02-19T01:40:13.499Z,6.27
2023-02-19T01:42:18.136Z,5.90
2023-02-19T01:45:13.417Z,5.50
2023-02-19T01:47:19.763Z,5.60
2023-02-19T01:49:28.823Z,6.77
2023-02-19T01:51:36.594Z,6.60
2023-02-19T01:53:44.752Z,7.80
2023-02-19T01:55:50.622Z,6.10
2023-02-19T01:57:57.250Z,7.00
2023-02-19T02:00:07.434Z,5.33
2023-02-19T02:02:17.586Z,5.63
2023-02-19T02:04:21.147Z,6.33
2023-02-19T02:06:26.831Z,6.17
2023-02-19T02:08:50.536Z,5.80
2023-02-19T02:10:58.364Z,7.57
2023-02-19T02:13:01.953Z,5.93
2023-02-19T02:15:06.412Z,7.07
2023-02-19T02:17:16.845Z,8.90
2023-02-19T02:19:33.184Z,8.13
2023-02-19T02:22:06.950Z,5.70
2023-02-19T02:24:36.768Z,8.40
2023-02-19T02:26:57.312Z,7.07
2023-02-19T02:29:31.389Z,7.80
2023-02-19T02:31:39.369Z,7.87
2023-02-19T02:33:48.497Z,11.17
2023-02-19T02:35:56.126Z,7.67
2023-02-19T02:38:04.686Z,11.30
2023-02-19T02:40:11.316Z,6.70
2023-02-19T02:42:30.326Z,7.17
2023-02-19T02:45:06.634Z,8.07
2023-02-19T02:47:31.295Z,7.30
2023-02-19T02:49:55.826Z,9.10
2023-02-19T02:52:21.829Z,8.80
2023-02-19T02:54:48.858Z,9.77
2023-02-19T02:56:55.623Z,8.10
2023-02-19T02:59:01.530Z,7.87
2023-02-19T03:01:27.959Z,7.97
2023-02-19T03:03:36.196Z,8.63
2023-02-19T03:05:55.332Z,9.03
2023-02-19T03:08:05.338Z,12.30
2023-02-19T03:10:13.383Z,10.10
2023-02-19T03:12:36.907Z,11.17
2023-02-19T03:15:02.457Z,11.80
2023-02-19T03:17:29.446Z,11.53
2023-02-19T03:19:43.913Z,9.37
2023-02-19T03:21:52.053Z,10.70
2023-02-19T03:24:14.721Z,8.60
2023-02-19T03:26:20.549Z,11.33
2023-02-19T03:28:47.116Z,10.77
2023-02-19T03:30:54.802Z,11.90
2023-02-19T03:33:03.041Z,10.53
2023-02-19T03:35:13.027Z,8.17
2023-02-19T03:37:25.192Z,8.93
2023-02-19T03:39:29.463Z,11.20
2023-02-19T03:41:39.273Z,12.70
2023-02-19T03:43:50.031Z,12.67
2023-02-19T03:46:01.528Z,10.40
2023-02-19T03:48:19.562Z,10.33
2023-02-19T03:50:29.124Z,10.93
2023-02-19T03:52:41.368Z,9.43
2023-02-19T03:54:52.788Z,11.80
2023-02-19T03:57:03.464Z,17.23
2023-02-19T03:59:12.878Z,10.37
2023-02-19T04:01:20.844Z,11.27
2023-02-19T04:03:30.310Z,10.53
2023-02-19T04:05:41.148Z,14.50
2023-02-19T04:07:50.400Z,12.13
2023-02-19T04:09:58.314Z,15.83
2023-02-19T04:12:02.829Z,10.87
2023-02-19T04:14:11.244Z,12.73
2023-02-19T04:16:21.363Z,10.40
2023-02-19T04:18:31.941Z,9.83
2023-02-19T04:20:43.302Z,14.63
2023-02-19T04:22:48.309Z,12.33
2023-02-19T04:24:56.397Z,12.37
2023-02-19T04:27:04.510Z,15.93
2023-02-19T04:29:07.955Z,11.57
2023-02-19T04:31:12.290Z,12.10
2023-02-19T04:33:16.061Z,12.87
2023-02-19T04:35:19.444Z,10.57
2023-02-19T04:37:24.459Z,10.67
2023-02-19T04:39:28.124Z,10.53
2023-02-19T04:41:31.630Z,13.13
2023-02-19T04:43:34.964Z,14.07
2023-02-19T04:45:38.783Z,12.80
2023-02-19T04:47:42.360Z,18.60
2023-02-19T04:49:46.215Z,12.43
2023-02-19T04:51:49.931Z,14.23
2023-02-19T04:53:56.262Z,12.47
2023-02-19T04:56:06.923Z,11.27
2023-02-19T04:58:10.456Z,11.37
2023-02-19T05:00:14.745Z,18.30
2023-02-19T05:02:18.234Z,12.87
2023-02-19T05:04:22.085Z,11.30
2023-02-19T05:06:25.612Z,13.97
2023-02-19T05:08:29.137Z,9.90
2023-02-19T05:10:34.708Z,11.90
2023-02-19T05:12:38.336Z,16.30
2023-02-19T05:14:41.767Z,14.03
2023-02-19T05:16:45.174Z,11.83
2023-02-19T05:18:48.716Z,12.60
2023-02-19T05:20:52.259Z,17.13
2023-02-19T05:22:55.641Z,14.63
2023-02-19T05:24:59.227Z,13.30
2023-02-19T05:27:03.956Z,16.17
2023-02-19T05:29:07.341Z,20.20
2023-02-19T05:31:12.704Z,14.33
2023-02-19T05:33:17.834Z,17.10
2023-02-19T05:35:21.403Z,19.20
2023-02-19T05:37:24.721Z,14.50
2023-02-19T05:39:28.198Z,17.60
2023-02-19T05:41:31.671Z,16.13
2023-02-19T05:43:36.556Z,17.67
2023-02-19T05:45:40.166Z,17.73
2023-02-19T05:47:43.639Z,13.80
2023-02-19T05:49:47.032Z,17.43
2023-02-19T05:51:51.642Z,15.90
2023-02-19T05:53:58.419Z,22.20
2023-02-19T05:56:02.537Z,18.57
2023-02-19T05:58:05.910Z,19.03
2023-02-19T06:00:12.342Z,16.50
2023-02-19T06:02:15.625Z,15.03
2023-02-19T06:04:20.414Z,14.13
2023-02-19T06:06:24.300Z,19.13
2023-02-19T06:08:27.721Z,16.67
2023-02-19T06:10:31.216Z,15.50
2023-02-19T06:12:34.733Z,17.43
2023-02-19T06:14:38.128Z,19.50
2023-02-19T06:16:42.970Z,14.30
2023-02-19T06:18:46.943Z,15.87
2023-02-19T06:20:50.295Z,14.40
2023-02-19T06:22:53.694Z,14.37
2023-02-19T06:24:57.112Z,16.43
2023-02-19T06:27:00.465Z,14.50
2023-02-19T06:29:04.082Z,14.33
2023-02-19T06:31:08.550Z,17.23
2023-02-19T06:33:13.444Z,16.20
2023-02-19T06:35:16.975Z,14.07
2023-02-19T06:37:20.348Z,18.70
2023-02-19T06:39:23.764Z,14.93
2023-02-19T06:41:27.284Z,17.50
2023-02-19T06:43:31.931Z,15.60
2023-02-19T06:45:35.515Z,14.37
2023-02-19T06:47:39.073Z,14.60
2023-02-19T06:49:44.411Z,12.97
2023-02-19T06:51:47.823Z,14.47
2023-02-19T06:53:51.700Z,16.00
2023-02-19T06:55:59.151Z,15.50
2023-02-19T06:58:02.941Z,12.27
2023-02-19T07:00:07.312Z,14.07
2023-02-19T07:02:12.276Z,13.10
2023-02-19T07:04:15.877Z,12.20
2023-02-19T07:06:21.525Z,14.17
2023-02-19T07:08:25.040Z,16.93
2023-02-19T07:10:28.600Z,15.13
2023-02-19T07:12:32.234Z,15.60
2023-02-19T07:14:35.950Z,10.60
2023-02-19T07:16:39.515Z,15.27
2023-02-19T07:18:42.959Z,14.70
2023-02-19T07:20:46.327Z,12.93
2023-02-19T07:22:51.344Z,13.90
2023-02-19T07:24:54.870Z,12.50
2023-02-19T07:26:58.353Z,14.60
2023-02-19T07:29:02.726Z,13.90
2023-02-19T07:31:07.084Z,14.47
2023-02-19T07:33:12.110Z,13.93
2023-02-19T07:35:15.598Z,15.33
2023-02-19T07:37:18.952Z,11.57
2023-02-19T07:39:23.692Z,14.63
2023-02-19T07:41:28.376Z,12.67
2023-02-19T07:43:36.838Z,12.10
2023-02-19T07:45:40.403Z,13.03
2023-02-19T07:47:44.803Z,12.03
2023-02-19T07:49:48.168Z,10.90
2023-02-19T07:51:51.843Z,15.00
2023-02-19T07:53:55.210Z,14.40
2023-02-19T07:56:02.698Z,13.83
2023-02-19T07:58:06.332Z,9.50
2023-02-19T08:00:10.780Z,9.80
2023-02-19T08:02:35.802Z,12.03
2023-02-19T08:04:39.140Z,11.80
2023-02-19T08:06:43.304Z,11.60
2023-02-19T08:08:46.669Z,16.27
2023-02-19T08:11:07.873Z,17.30
2023-02-19T08:13:26.203Z,11.00
2023-02-19T08:15:29.643Z,10.40
2023-02-19T08:17:32.909Z,13.73
2023-02-19T08:19:36.749Z,13.10
2023-02-19T08:21:40.127Z,13.10
2023-02-19T08:23:43.478Z,14.23
2023-02-19T08:25:47.387Z,14.43
2023-02-19T08:27:50.860Z,16.43
2023-02-19T08:29:55.930Z,12.00
2023-02-19T08:31:59.315Z,15.53
2023-02-19T08:34:02.911Z,13.83
2023-02-19T08:36:09.315Z,18.50
2023-02-19T08:38:14.219Z,12.63
2023-02-19T08:40:17.945Z,14.13
2023-02-19T08:42:21.215Z,9.87
2023-02-19T08:44:24.564Z,13.70
2023-02-19T08:46:29.452Z,11.10
2023-02-19T08:48:33.034Z,9.70
2023-02-19T08:50:37.459Z,11.80
2023-02-19T08:52:40.881Z,13.27
2023-02-19T08:54:44.416Z,10.90
2023-02-19T08:56:48.093Z,9.77
2023-02-19T08:58:51.602Z,13.97
2023-02-19T09:00:55.082Z,11.07
2023-02-19T09:03:00.312Z,10.30
2023-02-19T09:05:04.866Z,11.37
2023-02-19T09:07:10.935Z,10.67
2023-02-19T09:09:14.393Z,13.43
2023-02-19T09:11:18.174Z,13.20
2023-02-19T09:13:21.547Z,10.30
2023-02-19T09:15:25.157Z,16.63
2023-02-19T09:17:28.836Z,9.63
2023-02-19T09:19:34.399Z,11.53
2023-02-19T09:21:37.744Z,10.47
2023-02-19T09:23:41.311Z,14.27
2023-02-19T09:25:44.685Z,14.20
2023-02-19T09:27:48.032Z,8.67
2023-02-19T09:29:51.408Z,13.87
2023-02-19T09:31:58.089Z,13.40
2023-02-19T09:34:01.904Z,9.00
2023-02-19T09:36:07.399Z,8.40
2023-02-19T09:38:11.215Z,9.77
2023-02-19T09:40:15.878Z,7.50
2023-02-19T09:42:25.516Z,9.43
2023-02-19T09:44:31.648Z,11.53
2023-02-19T09:46:39.570Z,10.23
2023-02-19T09:48:43.723Z,12.60
2023-02-19T09:50:49.720Z,7.37
2023-02-19T09:52:57.332Z,10.23
2023-02-19T09:55:04.112Z,9.03
2023-02-19T09:57:14.917Z,8.97
2023-02-19T09:59:21.946Z,7.80
2023-02-19T10:01:28.859Z,10.27
2023-02-19T10:03:35.394Z,5.40
2023-02-19T10:05:40.884Z,6.47
2023-02-19T10:07:46.695Z,8.47
2023-02-19T10:09:56.572Z,7.83
2023-02-19T10:12:00.921Z,5.30
2023-02-19T10:14:09.423Z,6.57
2023-02-19T10:16:17.494Z,9.63
2023-02-19T10:18:24.174Z,6.73
2023-02-19T10:20:28.968Z,6.10
2023-02-19T10:22:35.831Z,7.70
2023-02-19T10:24:42.901Z,7.60
2023-02-19T10:26:47.970Z,6.30
2023-02-19T10:28:51.436Z,11.50
2023-02-19T10:30:56.935Z,8.47
2023-02-19T10:33:04.071Z,10.67
2023-02-19T10:35:13.637Z,6.30
2023-02-19T10:37:19.306Z,11.03
2023-02-19T10:39:42.217Z,15.03
2023-02-19T10:41:47.017Z,6.57
2023-02-19T10:43:55.495Z,7.43
2023-02-19T10:45:59.522Z,6.13
2023-02-19T10:48:04.351Z,6.90
2023-02-19T10:50:21.493Z,7.13
2023-02-19T10:52:27.824Z,8.37
2023-02-19T10:54:35.456Z,7.33
2023-02-19T10:56:40.706Z,8.97
2023-02-19T10:58:47.222Z,9.37
2023-02-19T11:01:12.047Z,8.00
2023-02-19T11:03:21.000Z,9.13
2023-02-19T11:05:25.055Z,7.00
2023-02-19T11:07:28.835Z,6.27
2023-02-19T11:09:38.567Z,7.83
2023-02-19T11:11:42.126Z,7.10
2023-02-19T11:13:49.898Z,7.13
2023-02-19T11:15:56.013Z,6.90
2023-02-19T11:18:04.998Z,6.83
2023-02-19T11:20:15.986Z,8.00
2023-02-19T11:22:28.514Z,8.47
2023-02-19T11:24:35.311Z,8.50
2023-02-19T11:26:39.260Z,5.50
2023-02-19T11:28:45.923Z,6.10
2023-02-19T11:30:50.836Z,7.23
2023-02-19T11:32:54.285Z,6.63
2023-02-19T11:35:18.573Z,7.07
2023-02-19T11:37:22.855Z,5.73
2023-02-19T11:39:32.152Z,5.80
2023-02-19T11:41:59.655Z,6.73
2023-02-19T11:44:20.485Z,7.33
2023-02-19T11:46:35.626Z,6.77
2023-02-19T11:48:53.791Z,6.37
2023-02-19T11:51:14.641Z,4.80
2023-02-19T11:53:26.063Z,9.03
2023-02-19T11:55:43.652Z,8.27
2023-02-19T11:57:49.329Z,4.90
2023-02-19T12:00:02.629Z,6.37
2023-02-19T12:02:38.959Z,5.90
2023-02-19T12:05:18.398Z,8.43
2023-02-19T12:07:35.535Z,6.37
2023-02-19T12:09:51.872Z,11.37
2023-02-19T12:12:16.021Z,7.30
2023-02-19T12:14:46.872Z,8.17
2023-02-19T12:16:57.017Z,8.97
2023-02-19T12:19:18.622Z,5.83
2023-02-19T12:21:34.666Z,9.30
2023-02-19T12:23:58.328Z,5.00
2023-02-19T12:26:08.940Z,6.80
2023-02-19T12:28:30.874Z,6.50
2023-02-19T12:31:00.896Z,5.77
2023-02-19T12:33:34.286Z,7.20
2023-02-19T12:35:56.585Z,6.23
2023-02-19T12:38:09.486Z,6.57
2023-02-19T12:40:25.456Z,5.33
2023-02-19T12:42:46.653Z,6.70
2023-02-19T12:44:55.283Z,5.23
2023-02-19T12:47:02.638Z,7.20
2023-02-19T12:49:13.018Z,5.70
2023-02-19T12:51:26.200Z,6.43
2023-02-19T12:53:40.850Z,4.73
2023-02-19T12:55:47.592Z,4.40
2023-02-19T12:57:52.270Z,12.30
2023-02-19T13:00:03.599Z,7.70
2023-02-19T13:02:16.973Z,6.40
2023-02-19T13:04:33.949Z,6.07
2023-02-19T13:06:44.104Z,5.37
2023-02-19T13:09:06.014Z,5.20
2023-02-19T13:11:16.449Z,3.20
2023-02-19T13:13:24.901Z,6.00
2023-02-19T13:15:33.969Z,10.50
2023-02-19T13:17:43.659Z,9.03
2023-02-19T13:19:49.744Z,4.53
2023-02-19T13:22:18.869Z,4.33
2023-02-19T13:24:26.733Z,2.90
2023-02-19T13:26:50.700Z,3.77
2023-02-19T13:29:08.416Z,4.30
2023-02-19T13:31:29.503Z,8.83
2023-02-19T13:33:44.198Z,6.13
2023-02-19T13:36:08.195Z,4.60
2023-02-19T13:38:14.525Z,4.53
2023-02-19T13:40:31.375Z,4.20
2023-02-19T13:42:37.058Z,4.03
2023-02-19T13:44:42.502Z,4.40
2023-02-19T13:46:47.571Z,5.47
2023-02-19T13:49:43.893Z,3.27
2023-02-19T13:51:51.380Z,2.63
2023-02-19T13:54:00.329Z,3.70
2023-02-19T13:56:03.661Z,3.50
2023-02-19T13:58:40.808Z,4.50
2023-02-19T14:00:51.651Z,3.30
2023-02-19T14:03:28.622Z,2.93
2023-02-19T14:06:00.075Z,3.70
2023-02-19T14:08:04.830Z,3.23
2023-02-19T14:10:13.600Z,4.10
2023-02-19T14:12:22.377Z,4.80
2023-02-19T14:14:34.854Z,7.10
2023-02-19T14:16:55.767Z,6.00
2023-02-19T14:18:59.348Z,5.13
2023-02-19T14:21:14.313Z,4.40
2023-02-19T14:23:24.513Z,4.57
2023-02-19T14:25:38.197Z,7.50
2023-02-19T14:27:41.742Z,4.40
2023-02-19T14:29:45.737Z,4.70
2023-02-19T14:31:49.211Z,4.70
2023-02-19T14:33:54.417Z,4.40
2023-02-19T14:36:02.301Z,6.27
2023-02-19T14:38:07.308Z,5.63
2023-02-19T14:40:20.320Z,3.50
2023-02-19T14:42:27.044Z,3.73
2023-02-19T14:44:33.007Z,2.87
2023-02-19T14:46:40.843Z,3.70
2023-02-19T14:48:48.546Z,3.30
2023-02-19T14:50:55.808Z,5.17
2023-02-19T14:53:02.682Z,4.17
2023-02-19T14:55:10.366Z,4.80
2023-02-19T14:57:20.155Z,5.77
2023-02-19T14:59:27.001Z,4.63
2023-02-19T15:01:30.553Z,6.23
2023-02-19T15:03:36.314Z,7.40
2023-02-19T15:05:40.005Z,7.10
2023-02-19T15:07:43.734Z,9.80
2023-02-19T15:09:49.968Z,8.50
2023-02-19T15:11:54.997Z,9.20
2023-02-19T15:14:01.870Z,7.87
2023-02-19T15:16:06.121Z,8.80
2023-02-19T15:18:16.393Z,8.60
2023-02-19T15:20:23.967Z,12.30
2023-02-19T15:22:29.279Z,8.50
2023-02-19T15:24:33.030Z,10.03
2023-02-19T15:26:38.957Z,10.40
2023-02-19T15:28:42.323Z,11.57
2023-02-19T15:30:47.298Z,9.30
2023-02-19T15:32:55.050Z,10.00
2023-02-19T15:34:59.762Z,9.27
2023-02-19T15:37:05.802Z,8.77
2023-02-19T15:39:19.706Z,9.33
2023-02-19T15:41:24.935Z,10.67
2023-02-19T15:43:31.152Z,8.60
2023-02-19T15:45:41.615Z,9.90
2023-02-19T15:47:52.636Z,8.07
2023-02-19T15:50:02.878Z,9.37
2023-02-19T15:52:11.305Z,9.23
2023-02-19T15:54:27.129Z,10.20
2023-02-19T15:56:33.201Z,11.17
2023-02-19T15:58:42.652Z,8.53
2023-02-19T16:00:50.353Z,8.23
2023-02-19T16:02:55.251Z,9.50
2023-02-19T16:05:02.081Z,8.93
2023-02-19T16:07:05.621Z,13.50
2023-02-19T16:09:22.276Z,11.70
2023-02-19T16:11:31.271Z,9.40
2023-02-19T16:13:36.010Z,9.43
2023-02-19T16:15:40.643Z,9.80
2023-02-19T16:17:45.352Z,9.27
2023-02-19T16:19:55.391Z,11.70
2023-02-19T16:22:00.406Z,9.80
2023-02-19T16:24:12.391Z,16.50
2023-02-19T16:26:16.284Z,9.60
2023-02-19T16:28:23.967Z,11.80
2023-02-19T16:30:34.140Z,9.80
2023-02-19T16:32:37.544Z,10.00
2023-02-19T16:34:44.150Z,12.10
2023-02-19T16:36:49.304Z,8.67
2023-02-19T16:39:20.452Z,8.90
2023-02-19T16:41:23.751Z,10.53
2023-02-19T16:43:32.815Z,9.07
2023-02-19T16:45:36.211Z,16.13
2023-02-19T16:47:41.608Z,9.77
2023-02-19T16:49:45.278Z,11.13
2023-02-19T16:51:50.577Z,12.50
2023-02-19T16:53:54.612Z,10.97
2023-02-19T16:55:58.404Z,12.67
2023-02-19T16:58:02.458Z,10.17
2023-02-19T17:00:06.751Z,10.60
2023-02-19T17:02:17.086Z,10.27
2023-02-19T17:04:20.564Z,9.93
2023-02-19T17:06:24.016Z,9.50
2023-02-19T17:08:35.349Z,10.50
2023-02-19T17:10:38.615Z,13.67
2023-02-19T17:12:42.263Z,12.33
2023-02-19T17:14:45.766Z,7.87
2023-02-19T17:16:49.373Z,9.83
2023-02-19T17:18:53.121Z,7.77
2023-02-19T17:21:01.358Z,8.00
2023-02-19T17:23:04.958Z,7.23
2023-02-19T17:25:09.832Z,6.03
2023-02-19T17:27:13.527Z,6.37
2023-02-19T17:29:18.433Z,7.83
2023-02-19T17:31:21.909Z,6.93
2023-02-19T17:33:25.408Z,3.77
2023-02-19T17:35:28.772Z,4.23
2023-02-19T17:37:32.113Z,5.73
2023-02-19T17:39:35.450Z,5.17
2023-02-19T17:41:40.241Z,4.93
2023-02-19T17:43:43.766Z,2.60
2023-02-19T17:45:47.430Z,2.87
2023-02-19T17:47:51.339Z,3.43
2023-02-19T17:49:55.685Z,2.30
2023-02-19T17:51:59.603Z,2.80
2023-02-19T17:54:03.033Z,2.97
2023-02-19T17:56:06.850Z,2.57
2023-02-19T17:58:12.230Z,3.20
2023-02-19T18:00:20.240Z,3.20
2023-02-19T18:02:23.551Z,4.00
2023-02-19T18:04:27.025Z,4.03
2023-02-19T18:06:30.320Z,4.90
2023-02-19T18:08:33.708Z,2.70
2023-02-19T18:10:37.108Z,3.17
2023-02-19T18:12:40.629Z,5.10
2023-02-19T18:14:47.650Z,2.40
2023-02-19T18:16:51.377Z,3.77
2023-02-19T18:18:54.982Z,5.10
2023-02-19T18:20:58.439Z,3.17
2023-02-19T18:23:02.023Z,3.63
2023-02-19T18:25:05.563Z,2.33
2023-02-19T18:27:08.950Z,2.60
2023-02-19T18:29:12.597Z,1.77
2023-02-19T18:31:17.646Z,5.70
2023-02-19T18:33:21.510Z,1.57
2023-02-19T18:35:24.958Z,1.30
2023-02-19T18:37:31.290Z,1.67
2023-02-19T18:39:34.694Z,1.77
2023-02-19T18:41:38.023Z,2.80
2023-02-19T18:43:41.836Z,1.50
2023-02-19T18:45:46.554Z,1.57
2023-02-19T18:47:51.869Z,1.30
2023-02-19T18:49:57.455Z,4.23
2023-02-19T18:52:01.865Z,1.30
2023-02-19T18:54:05.342Z,1.50
2023-02-19T18:56:09.121Z,1.20
2023-02-19T18:58:12.541Z,2.03
2023-02-19T19:00:19.834Z,1.60
2023-02-19T19:02:23.325Z,2.60
2023-02-19T19:04:28.132Z,2.50
2023-02-19T19:06:32.103Z,1.40
2023-02-19T19:08:35.494Z,2.30
2023-02-19T19:10:38.861Z,2.43
2023-02-19T19:12:42.251Z,3.13
2023-02-19T19:14:45.918Z,1.97
2023-02-19T19:16:49.969Z,2.33
2023-02-19T19:18:54.213Z,2.80
2023-02-19T19:21:03.191Z,1.20
2023-02-19T19:23:06.591Z,1.97
2023-02-19T19:25:10.463Z,1.50
2023-02-19T19:27:14.730Z,2.23
2023-02-19T19:29:19.943Z,3.27
2023-02-19T19:31:24.736Z,2.60
2023-02-19T19:33:28.320Z,1.20
2023-02-19T19:35:31.645Z,1.60
2023-02-19T19:37:36.343Z,1.00
2023-02-19T19:39:39.934Z,2.13
2023-02-19T19:41:43.241Z,1.83
2023-02-19T19:43:47.137Z,1.10
2023-02-19T19:45:51.107Z,1.73
2023-02-19T19:47:54.742Z,1.53
2023-02-19T19:49:58.152Z,1.93
2023-02-19T19:52:01.858Z,2.70
2023-02-19T19:54:08.364Z,1.33
2023-02-19T19:56:11.727Z,1.83
2023-02-19T19:58:16.755Z,1.20
2023-02-19T20:00:23.411Z,1.60
2023-02-19T20:02:26.880Z,4.10
2023-02-19T20:04:30.724Z,2.03
2023-02-19T20:06:34.001Z,2.00
2023-02-19T20:08:37.353Z,3.00
2023-02-19T20:10:43.454Z,1.83
2023-02-19T20:12:49.438Z,3.17
2023-02-19T20:14:52.756Z,2.07
2023-02-19T20:16:56.866Z,1.23
2023-02-19T20:19:00.405Z,2.63
2023-02-19T20:21:04.402Z,1.60
2023-02-19T20:23:07.785Z,1.27
2023-02-19T20:25:11.684Z,0.90
2023-02-19T20:27:16.513Z,1.60
2023-02-19T20:29:20.581Z,1.83
2023-02-19T20:31:24.426Z,1.40
2023-02-19T20:33:27.891Z,1.67
2023-02-19T20:35:31.810Z,3.50
2023-02-19T20:37:35.213Z,1.50
2023-02-19T20:39:38.799Z,1.13
2023-02-19T20:41:45.797Z,1.50
2023-02-19T20:43:51.149Z,2.40
2023-02-19T20:45:54.515Z,1.17
2023-02-19T20:47:58.045Z,3.13
2023-02-19T20:50:01.903Z,1.60
2023-02-19T20:52:07.560Z,1.90
2023-02-19T20:54:10.907Z,1.33
2023-02-19T20:56:16.467Z,2.00
2023-02-19T20:58:21.094Z,3.50
2023-02-19T21:00:25.988Z,2.10
2023-02-19T21:02:29.980Z,1.83
2023-02-19T21:04:33.862Z,2.27
2023-02-19T21:06:37.529Z,1.33
2023-02-19T21:08:40.940Z,1.67
2023-02-19T21:10:45.483Z,1.33
2023-02-19T21:12:50.532Z,1.30
2023-02-19T21:14:53.898Z,2.07
2023-02-19T21:16:58.650Z,3.43
2023-02-19T21:19:02.790Z,1.40
2023-02-19T21:21:06.576Z,2.23
2023-02-19T21:23:09.986Z,2.27
2023-02-19T21:25:13.430Z,3.50
2023-02-19T21:27:16.838Z,1.80
2023-02-19T21:29:22.665Z,1.40
2023-02-19T21:31:26.235Z,1.90
2023-02-19T21:33:31.117Z,1.47
2023-02-19T21:35:34.452Z,2.30
2023-02-19T21:37:37.962Z,2.03
2023-02-19T21:39:42.748Z,1.73
2023-02-19T21:41:46.462Z,1.30
2023-02-19T21:43:49.810Z,2.20
2023-02-19T21:45:53.219Z,1.83
2023-02-19T21:47:56.690Z,1.30
2023-02-19T21:50:01.412Z,3.73
2023-02-19T21:52:04.844Z,1.50
2023-02-19T21:54:09.661Z,4.40
2023-02-19T21:56:13.571Z,2.60
2023-02-19T21:58:17.072Z,1.77
2023-02-19T22:00:20.986Z,1.30
2023-02-19T22:02:24.399Z,3.17
2023-02-19T22:04:27.825Z,2.60
2023-02-19T22:06:32.898Z,1.53
2023-02-19T22:08:36.268Z,1.90
2023-02-19T22:10:42.346Z,1.47
2023-02-19T22:12:45.850Z,1.50
2023-02-19T22:14:49.196Z,1.70
2023-02-19T22:16:52.756Z,1.30
2023-02-19T22:18:59.181Z,1.50
2023-02-19T22:21:04.336Z,2.70
2023-02-19T22:23:09.254Z,2.20
2023-02-19T22:25:12.623Z,4.03
2023-02-19T22:27:18.359Z,2.00
2023-02-19T22:29:21.718Z,3.83
2023-02-19T22:31:26.655Z,2.17
2023-02-19T22:33:30.442Z,1.53
2023-02-19T22:35:33.785Z,2.10
2023-02-19T22:37:37.138Z,2.30
2023-02-19T22:39:41.909Z,2.80
2023-02-19T22:41:45.438Z,1.77
2023-02-19T22:43:50.289Z,2.07
2023-02-19T22:45:53.661Z,2.23
2023-02-19T22:47:57.507Z,2.10
2023-02-19T22:50:00.870Z,2.13
2023-02-19T22:52:07.983Z,2.53
2023-02-19T22:54:11.251Z,2.43
2023-02-19T22:56:17.651Z,1.90
2023-02-19T22:58:21.086Z,2.33
2023-02-19T23:00:24.532Z,2.67
2023-02-19T23:02:27.905Z,3.33
2023-02-19T23:04:31.404Z,2.03
2023-02-19T23:06:35.802Z,2.63
2023-02-19T23:08:39.316Z,1.73
2023-02-19T23:10:42.855Z,2.80
2023-02-19T23:12:47.546Z,4.50
2023-02-19T23:14:50.838Z,2.40
2023-02-19T23:16:54.271Z,2.40
2023-02-19T23:18:57.658Z,2.33
2023-02-19T23:21:01.149Z,2.33
2023-02-19T23:23:04.500Z,2.80
2023-02-19T23:25:08.047Z,2.70
2023-02-19T23:27:11.348Z,4.90
2023-02-19T23:29:18.595Z,2.30
2023-02-19T23:31:22.234Z,4.63
2023-02-19T23:33:25.724Z,2.10
2023-02-19T23:35:29.102Z,4.37
2023-02-19T23:37:32.549Z,1.63
2023-02-19T23:39:35.869Z,2.93
2023-02-19T23:41:39.557Z,2.70
2023-02-19T23:43:42.945Z,2.80
2023-02-19T23:45:47.800Z,4.03
2023-02-19T23:47:51.338Z,3.37
2023-02-19T23:49:54.857Z,3.67
2023-02-19T23:51:58.242Z,6.70
2023-02-19T23:54:01.550Z,4.43
2023-02-19T23:56:05.346Z,3.90
2023-02-19T23:58:08.689Z,6.20
